sensor_id;sensor_type;location;lat;lon;timestamp;pressure;altitude;pressure_sealevel;temperature;humidity
30554;BME280;17335;50.720;7.452;2023-03-14T00:01:26;97049.44;;;10.02;100.00
30554;BME280;17335;50.720;7.452;2023-03-14T00:03:52;97037.69;;;10.03;100.00
30554;BME280;17335;50.720;7.452;2023-03-14T00:06:19;97025.56;;;10.07;100.00
30554;BME280;17335;50.720;7.452;2023-03-14T00:08:47;97022.22;;;10.05;100.00
30554;BME280;17335;50.720;7.452;2023-03-14T00:11:16;97027.59;;;10.05;100.00
30554;BME280;17335;50.720;7.452;2023-03-14T00:13:47;97032.94;;;10.05;100.00
30554;BME280;17335;50.720;7.452;2023-03-14T00:16:14;97040.31;;;9.97;100.00
30554;BME280;17335;50.720;7.452;2023-03-14T00:18:40;97042.81;;;9.98;100.00
30554;BME280;17335;50.720;7.452;2023-03-14T00:21:08;97047.31;;;9.91;100.00
30554;BME280;17335;50.720;7.452;2023-03-14T00:23:37;97038.31;;;10.05;100.00
30554;BME280;17335;50.720;7.452;2023-03-14T00:26:12;97054.38;;;10.05;100.00
30554;BME280;17335;50.720;7.452;2023-03-14T00:28:39;97061.59;;;10.05;100.00
30554;BME280;17335;50.720;7.452;2023-03-14T00:31:08;97056.44;;;10.03;100.00
30554;BME280;17335;50.720;7.452;2023-03-14T00:33:35;97048.00;;;10.06;100.00
30554;BME280;17335;50.720;7.452;2023-03-14T00:36:07;97042.84;;;10.05;100.00
30554;BME280;17335;50.720;7.452;2023-03-14T00:38:36;97038.34;;;10.12;100.00
30554;BME280;17335;50.720;7.452;2023-03-14T00:41:08;97038.38;;;10.19;100.00
30554;BME280;17335;50.720;7.452;2023-03-14T00:43:34;97041.22;;;10.10;100.00
30554;BME280;17335;50.720;7.452;2023-03-14T00:46:01;97039.34;;;10.04;100.00
30554;BME280;17335;50.720;7.452;2023-03-14T00:48:28;97012.72;;;9.96;100.00
30554;BME280;17335;50.720;7.452;2023-03-14T00:50:55;97009.78;;;9.91;100.00
30554;BME280;17335;50.720;7.452;2023-03-14T00:53:22;97002.38;;;9.93;100.00
30554;BME280;17335;50.720;7.452;2023-03-14T00:55:49;97010.59;;;9.91;100.00
30554;BME280;17335;50.720;7.452;2023-03-14T00:58:17;97005.22;;;9.85;100.00
30554;BME280;17335;50.720;7.452;2023-03-14T01:00:45;97017.22;;;9.89;100.00
30554;BME280;17335;50.720;7.452;2023-03-14T01:03:14;97022.56;;;9.89;100.00
30554;BME280;17335;50.720;7.452;2023-03-14T01:05:41;97029.56;;;9.90;100.00
30554;BME280;17335;50.720;7.452;2023-03-14T01:08:08;97027.31;;;9.93;100.00
30554;BME280;17335;50.720;7.452;2023-03-14T01:10:38;97027.94;;;9.89;100.00
30554;BME280;17335;50.720;7.452;2023-03-14T01:13:07;97024.19;;;9.90;100.00
30554;BME280;17335;50.720;7.452;2023-03-14T01:15:34;97025.88;;;9.91;100.00
30554;BME280;17335;50.720;7.452;2023-03-14T01:18:02;97025.81;;;9.84;100.00
30554;BME280;17335;50.720;7.452;2023-03-14T01:20:29;97032.00;;;9.85;100.00
30554;BME280;17335;50.720;7.452;2023-03-14T01:22:56;97031.19;;;9.84;100.00
30554;BME280;17335;50.720;7.452;2023-03-14T01:25:23;97020.47;;;9.84;100.00
30554;BME280;17335;50.720;7.452;2023-03-14T01:27:49;97018.22;;;9.88;100.00
30554;BME280;17335;50.720;7.452;2023-03-14T01:30:16;97011.03;;;9.95;100.00
30554;BME280;17335;50.720;7.452;2023-03-14T01:32:42;97009.78;;;9.91;100.00
30554;BME280;17335;50.720;7.452;2023-03-14T01:35:09;96999.84;;;9.85;100.00
30554;BME280;17335;50.720;7.452;2023-03-14T01:37:36;96991.81;;;9.85;100.00
30554;BME280;17335;50.720;7.452;2023-03-14T01:40:03;97002.38;;;9.93;100.00
30554;BME280;17335;50.720;7.452;2023-03-14T01:42:31;96993.28;;;9.87;100.00
30554;BME280;17335;50.720;7.452;2023-03-14T01:45:00;96993.25;;;9.81;100.00
30554;BME280;17335;50.720;7.452;2023-03-14T01:47:27;96993.72;;;9.91;100.00
30554;BME280;17335;50.720;7.452;2023-03-14T01:50:04;96999.47;;;9.88;100.00
30554;BME280;17335;50.720;7.452;2023-03-14T01:55:22;97005.22;;;9.85;100.00
30554;BME280;17335;50.720;7.452;2023-03-14T01:58:01;96993.88;;;9.83;100.00
30554;BME280;17335;50.720;7.452;2023-03-14T02:00:29;97001.03;;;9.75;100.00
30554;BME280;17335;50.720;7.452;2023-03-14T02:03:00;97003.09;;;9.73;100.00
30554;BME280;17335;50.720;7.452;2023-03-14T02:05:36;96989.47;;;9.68;100.00
30554;BME280;17335;50.720;7.452;2023-03-14T02:08:07;96988.66;;;9.74;100.00
30554;BME280;17335;50.720;7.452;2023-03-14T02:10:40;96999.38;;;9.74;100.00
30554;BME280;17335;50.720;7.452;2023-03-14T02:13:08;96985.38;;;9.72;100.00
30554;BME280;17335;50.720;7.452;2023-03-14T02:15:36;96975.69;;;9.71;100.00
30554;BME280;17335;50.720;7.452;2023-03-14T02:18:04;96979.38;;;9.70;100.00
30554;BME280;17335;50.720;7.452;2023-03-14T02:26:28;96997.22;;;9.56;100.00
30554;BME280;17335;50.720;7.452;2023-03-14T02:28:56;97003.78;;;9.54;100.00
30554;BME280;17335;50.720;7.452;2023-03-14T02:31:23;96996.34;;;9.49;100.00
30554;BME280;17335;50.720;7.452;2023-03-14T02:33:50;96995.13;;;9.52;100.00
30554;BME280;17335;50.720;7.452;2023-03-14T02:36:19;96984.41;;;9.52;100.00
30554;BME280;17335;50.720;7.452;2023-03-14T02:38:55;96983.16;;;9.48;100.00
30554;BME280;17335;50.720;7.452;2023-03-14T02:41:23;96975.91;;;9.42;100.00
30554;BME280;17335;50.720;7.452;2023-03-14T02:43:50;96971.81;;;9.46;100.00
30554;BME280;17335;50.720;7.452;2023-03-14T02:46:19;96962.91;;;9.38;100.00
30554;BME280;17335;50.720;7.452;2023-03-14T02:48:58;96953.84;;;9.39;100.00
30554;BME280;17335;50.720;7.452;2023-03-14T02:51:28;96948.94;;;9.43;100.00
30554;BME280;17335;50.720;7.452;2023-03-14T02:53:55;96941.09;;;9.42;100.00
30554;BME280;17335;50.720;7.452;2023-03-14T02:56:22;96942.22;;;9.26;100.00
30554;BME280;17335;50.720;7.452;2023-03-14T02:58:48;96935.22;;;9.25;100.00
30554;BME280;17335;50.720;7.452;2023-03-14T03:01:15;96936.81;;;9.19;100.00
30554;BME280;17335;50.720;7.452;2023-03-14T03:03:44;96922.81;;;9.17;100.00
30554;BME280;17335;50.720;7.452;2023-03-14T03:06:11;96937.63;;;9.13;100.00
30554;BME280;17335;50.720;7.452;2023-03-14T03:08:37;96926.69;;;9.08;100.00
30554;BME280;17335;50.720;7.452;2023-03-14T03:11:04;96924.38;;;9.05;100.00
30554;BME280;17335;50.720;7.452;2023-03-14T03:13:31;96927.63;;;9.00;100.00
30554;BME280;17335;50.720;7.452;2023-03-14T03:15:57;96920.13;;;8.89;100.00
30554;BME280;17335;50.720;7.452;2023-03-14T03:18:24;96919.25;;;8.81;100.00
30554;BME280;17335;50.720;7.452;2023-03-14T03:20:51;96929.00;;;8.89;100.00
30554;BME280;17335;50.720;7.452;2023-03-14T03:23:17;96935.34;;;8.88;100.00
30554;BME280;17335;50.720;7.452;2023-03-14T03:25:49;96924.59;;;8.81;100.00
30554;BME280;17335;50.720;7.452;2023-03-14T03:28:17;96923.78;;;8.81;100.00
30554;BME280;17335;50.720;7.452;2023-03-14T03:30:43;96925.09;;;8.92;100.00
30554;BME280;17335;50.720;7.452;2023-03-14T03:33:11;96932.44;;;8.83;100.00
30554;BME280;17335;50.720;7.452;2023-03-14T03:35:45;96946.69;;;8.90;100.00
30554;BME280;17335;50.720;7.452;2023-03-14T03:38:12;96951.41;;;8.88;100.00
30554;BME280;17335;50.720;7.452;2023-03-14T03:40:39;96952.94;;;8.97;100.00
30554;BME280;17335;50.720;7.452;2023-03-14T03:43:06;96950.53;;;9.03;100.00
30554;BME280;17335;50.720;7.452;2023-03-14T03:45:33;96936.66;;;8.99;100.00
30554;BME280;17335;50.720;7.452;2023-03-14T03:48:00;96926.81;;;8.99;100.00
30554;BME280;17335;50.720;7.452;2023-03-14T03:50:26;96920.84;;;8.97;100.00
30554;BME280;17335;50.720;7.452;2023-03-14T03:52:53;96908.75;;;9.08;100.00
30554;BME280;17335;50.720;7.452;2023-03-14T03:55:19;96901.41;;;9.17;100.00
30554;BME280;17335;50.720;7.452;2023-03-14T03:57:46;96892.75;;;9.15;100.00
30554;BME280;17335;50.720;7.452;2023-03-14T04:00:13;96898.94;;;9.15;100.00
30554;BME280;17335;50.720;7.452;2023-03-14T04:02:40;96902.22;;;9.17;100.00
30554;BME280;17335;50.720;7.452;2023-03-14T04:05:07;96894.81;;;9.19;100.00
30554;BME280;17335;50.720;7.452;2023-03-14T04:07:33;96891.94;;;9.21;100.00
30554;BME280;17335;50.720;7.452;2023-03-14T04:10:00;96891.56;;;9.24;100.00
30554;BME280;17335;50.720;7.452;2023-03-14T04:12:27;96888.28;;;9.22;100.00
30554;BME280;17335;50.720;7.452;2023-03-14T04:14:53;96892.38;;;9.25;100.00
30554;BME280;17335;50.720;7.452;2023-03-14T04:17:20;96892.66;;;9.36;100.00
30554;BME280;17335;50.720;7.452;2023-03-14T04:19:48;96892.81;;;9.28;100.00
30554;BME280;17335;50.720;7.452;2023-03-14T04:22:17;96902.75;;;9.34;100.00
30554;BME280;17335;50.720;7.452;2023-03-14T04:24:44;96896.63;;;9.41;100.00
30554;BME280;17335;50.720;7.452;2023-03-14T04:27:10;96899.91;;;9.43;100.00
30554;BME280;17335;50.720;7.452;2023-03-14T04:29:37;96888.81;;;9.46;100.00
30554;BME280;17335;50.720;7.452;2023-03-14T04:32:04;96883.84;;;9.43;100.00
30554;BME280;17335;50.720;7.452;2023-03-14T04:34:30;96888.41;;;9.49;100.00
30554;BME280;17335;50.720;7.452;2023-03-14T04:36:57;96878.94;;;9.46;100.00
30554;BME280;17335;50.720;7.452;2023-03-14T04:39:24;96885.28;;;9.45;100.00
30554;BME280;17335;50.720;7.452;2023-03-14T04:41:50;96883.84;;;9.43;100.00
30554;BME280;17335;50.720;7.452;2023-03-14T04:44:17;96878.09;;;9.46;100.00
30554;BME280;17335;50.720;7.452;2023-03-14T04:46:43;96880.38;;;9.49;100.00
30554;BME280;17335;50.720;7.452;2023-03-14T04:49:10;96875.22;;;9.47;100.00
30554;BME280;17335;50.720;7.452;2023-03-14T04:51:37;96870.28;;;9.44;100.00
30554;BME280;17335;50.720;7.452;2023-03-14T04:54:04;96858.94;;;9.42;100.00
30554;BME280;17335;50.720;7.452;2023-03-14T04:56:31;96864.06;;;9.44;100.00
30554;BME280;17335;50.720;7.452;2023-03-14T04:58:57;96854.00;;;9.46;100.00
30554;BME280;17335;50.720;7.452;2023-03-14T05:01:24;96850.47;;;9.45;100.00
30554;BME280;17335;50.720;7.452;2023-03-14T05:03:50;96834.22;;;9.47;100.00
30554;BME280;17335;50.720;7.452;2023-03-14T05:06:17;96842.25;;;9.47;100.00
30554;BME280;17335;50.720;7.452;2023-03-14T05:08:44;96835.69;;;9.49;100.00
30554;BME280;17335;50.720;7.452;2023-03-14T05:11:11;96827.44;;;9.44;100.00
30554;BME280;17335;50.720;7.452;2023-03-14T05:13:39;96839.78;;;9.45;100.00
30554;BME280;17335;50.720;7.452;2023-03-14T05:16:08;96828.44;;;9.43;100.00
30554;BME280;17335;50.720;7.452;2023-03-14T05:18:35;96832.41;;;9.47;100.00
30554;BME280;17335;50.720;7.452;2023-03-14T05:21:03;96827.84;;;9.48;100.00
30554;BME280;17335;50.720;7.452;2023-03-14T05:23:30;96830.31;;;9.43;100.00
30554;BME280;17335;50.720;7.452;2023-03-14T05:25:57;96817.94;;;9.42;100.00
30554;BME280;17335;50.720;7.452;2023-03-14T05:28:24;96814.63;;;9.39;100.00
30554;BME280;17335;50.720;7.452;2023-03-14T05:30:51;96827.22;;;9.46;100.00
30554;BME280;17335;50.720;7.452;2023-03-14T05:33:18;96829.66;;;9.34;100.00
30554;BME280;17335;50.720;7.452;2023-03-14T05:35:44;96825.50;;;9.31;100.00
30554;BME280;17335;50.720;7.452;2023-03-14T05:38:11;96829.81;;;9.26;100.00
30554;BME280;17335;50.720;7.452;2023-03-14T05:40:38;96825.66;;;9.16;100.00
30554;BME280;17335;50.720;7.452;2023-03-14T05:43:04;96822.78;;;9.18;100.00
30554;BME280;17335;50.720;7.452;2023-03-14T05:45:31;96815.72;;;9.10;100.00
30554;BME280;17335;50.720;7.452;2023-03-14T05:48:00;96805.84;;;9.11;100.00
30554;BME280;17335;50.720;7.452;2023-03-14T05:50:27;96819.22;;;9.11;100.00
30554;BME280;17335;50.720;7.452;2023-03-14T05:52:53;96804.78;;;9.05;100.00
30554;BME280;17335;50.720;7.452;2023-03-14T05:55:20;96810.13;;;9.05;100.00
30554;BME280;17335;50.720;7.452;2023-03-14T05:57:47;96820.22;;;9.03;100.00
30554;BME280;17335;50.720;7.452;2023-03-14T06:00:13;96791.19;;;9.00;100.00
30554;BME280;17335;50.720;7.452;2023-03-14T06:02:40;96801.88;;;9.00;100.00
30554;BME280;17335;50.720;7.452;2023-03-14T06:05:07;96811.16;;;8.97;100.00
30554;BME280;17335;50.720;7.452;2023-03-14T06:07:34;96816.50;;;8.97;100.00
30554;BME280;17335;50.720;7.452;2023-03-14T06:10:00;96810.50;;;8.95;100.00
30554;BME280;17335;50.720;7.452;2023-03-14T06:12:27;96814.63;;;8.98;100.00
30554;BME280;17335;50.720;7.452;2023-03-14T06:14:56;96803.94;;;8.98;100.00
30554;BME280;17335;50.720;7.452;2023-03-14T06:17:23;96802.47;;;8.95;100.00
30554;BME280;17335;50.720;7.452;2023-03-14T06:19:49;96799.63;;;9.04;100.00
30554;BME280;17335;50.720;7.452;2023-03-14T06:22:16;96793.28;;;9.05;100.00
30554;BME280;17335;50.720;7.452;2023-03-14T06:24:44;96793.50;;;9.10;100.00
30554;BME280;17335;50.720;7.452;2023-03-14T06:27:10;96805.25;;;9.15;100.00
30554;BME280;17335;50.720;7.452;2023-03-14T06:29:37;96820.66;;;9.07;100.00
30554;BME280;17335;50.720;7.452;2023-03-14T06:32:04;96808.47;;;9.04;100.00
30554;BME280;17335;50.720;7.452;2023-03-14T06:34:31;96813.19;;;9.02;100.00
30554;BME280;17335;50.720;7.452;2023-03-14T06:36:57;96807.81;;;8.95;100.00
30554;BME280;17335;50.720;7.452;2023-03-14T06:39:25;96816.59;;;8.82;100.00
30554;BME280;17335;50.720;7.452;2023-03-14T06:41:51;96825.81;;;8.80;100.00
30554;BME280;17335;50.720;7.452;2023-03-14T06:44:18;96815.72;;;8.75;100.00
30554;BME280;17335;50.720;7.452;2023-03-14T06:46:44;96817.19;;;8.78;100.00
30554;BME280;17335;50.720;7.452;2023-03-14T06:49:11;96816.66;;;8.89;100.00
30554;BME280;17335;50.720;7.452;2023-03-14T06:51:37;96815.59;;;8.90;100.00
30554;BME280;17335;50.720;7.452;2023-03-14T06:54:04;96816.50;;;8.97;100.00
30554;BME280;17335;50.720;7.452;2023-03-14T06:56:31;96812.00;;;9.05;100.00
30554;BME280;17335;50.720;7.452;2023-03-14T06:58:58;96807.50;;;9.12;100.00
30554;BME280;17335;50.720;7.452;2023-03-14T07:01:27;96802.38;;;9.17;100.00
30554;BME280;17335;50.720;7.452;2023-03-14T07:03:54;96811.03;;;9.19;100.00
30554;BME280;17335;50.720;7.452;2023-03-14T07:06:21;96811.03;;;9.19;100.00
30554;BME280;17335;50.720;7.452;2023-03-14T07:08:48;96809.84;;;9.22;100.00
30554;BME280;17335;50.720;7.452;2023-03-14T07:11:15;96809.84;;;9.28;100.00
30554;BME280;17335;50.720;7.452;2023-03-14T07:13:42;96808.41;;;9.26;100.00
30554;BME280;17335;50.720;7.452;2023-03-14T07:16:09;96819.94;;;9.33;100.00
30554;BME280;17335;50.720;7.452;2023-03-14T07:18:35;96811.94;;;9.39;100.00
30554;BME280;17335;50.720;7.452;2023-03-14T07:21:05;96824.09;;;9.35;100.00
30554;BME280;17335;50.720;7.452;2023-03-14T07:23:31;96822.44;;;9.34;100.00
30554;BME280;17335;50.720;7.452;2023-03-14T07:25:58;96816.09;;;9.42;100.00
30554;BME280;17335;50.720;7.452;2023-03-14T07:28:25;96812.00;;;9.46;100.00
30554;BME280;17335;50.720;7.452;2023-03-14T07:30:54;96820.03;;;9.46;100.00
30554;BME280;17335;50.720;7.452;2023-03-14T07:33:20;96823.34;;;9.55;100.00
30554;BME280;17335;50.720;7.452;2023-03-14T07:35:48;96818.59;;;9.57;100.00
30554;BME280;17335;50.720;7.452;2023-03-14T07:38:16;96831.00;;;9.58;100.00
30554;BME280;17335;50.720;7.452;2023-03-14T07:40:43;96826.25;;;9.60;100.00
30554;BME280;17335;50.720;7.452;2023-03-14T07:43:09;96816.00;;;9.77;100.00
30554;BME280;17335;50.720;7.452;2023-03-14T07:45:36;96831.72;;;9.87;100.00
30554;BME280;17335;50.720;7.452;2023-03-14T07:48:08;96826.78;;;9.97;100.00
30554;BME280;17335;50.720;7.452;2023-03-14T07:50:34;96807.59;;;10.07;100.00
30554;BME280;17335;50.720;7.452;2023-03-14T07:53:01;96827.63;;;10.18;100.00
30554;BME280;17335;50.720;7.452;2023-03-14T07:55:27;96820.84;;;10.28;100.00
30554;BME280;17335;50.720;7.452;2023-03-14T07:57:54;96828.94;;;10.35;100.00
30554;BME280;17335;50.720;7.452;2023-03-14T08:00:21;96834.72;;;10.45;100.00
30554;BME280;17335;50.720;7.452;2023-03-14T08:02:48;96825.22;;;10.49;100.00
30554;BME280;17335;50.720;7.452;2023-03-14T08:05:15;96833.47;;;10.55;100.00
30554;BME280;17335;50.720;7.452;2023-03-14T08:07:41;96816.31;;;10.62;100.00
30554;BME280;17335;50.720;7.452;2023-03-14T08:10:09;96824.38;;;10.62;100.00
30554;BME280;17335;50.720;7.452;2023-03-14T08:12:35;96824.81;;;10.66;100.00
30554;BME280;17335;50.720;7.452;2023-03-14T08:15:02;96829.31;;;10.79;100.00
30554;BME280;17335;50.720;7.452;2023-03-14T08:17:29;96820.25;;;10.86;100.00
30554;BME280;17335;50.720;7.452;2023-03-14T08:19:56;96821.47;;;10.84;100.00
30554;BME280;17335;50.720;7.452;2023-03-14T08:22:22;96820.66;;;10.83;100.00
30554;BME280;17335;50.720;7.452;2023-03-14T08:24:49;96817.13;;;10.83;100.00
30554;BME280;17335;50.720;7.452;2023-03-14T08:27:16;96828.06;;;10.88;100.00
30554;BME280;17335;50.720;7.452;2023-03-14T08:29:43;96818.78;;;10.97;100.00
30554;BME280;17335;50.720;7.452;2023-03-14T08:32:10;96818.53;;;11.12;100.00
30554;BME280;17335;50.720;7.452;2023-03-14T08:34:37;96828.84;;;11.22;100.00
30554;BME280;17335;50.720;7.452;2023-03-14T08:37:05;96829.22;;;11.25;100.00
30554;BME280;17335;50.720;7.452;2023-03-14T08:39:48;96817.25;;;11.28;100.00
30554;BME280;17335;50.720;7.452;2023-03-14T08:42:15;96816.41;;;11.27;100.00
30554;BME280;17335;50.720;7.452;2023-03-14T08:44:42;96819.06;;;11.34;100.00
30554;BME280;17335;50.720;7.452;2023-03-14T08:47:08;96825.44;;;11.47;100.00
30554;BME280;17335;50.720;7.452;2023-03-14T08:49:35;96810.56;;;11.51;100.00
30554;BME280;17335;50.720;7.452;2023-03-14T08:52:03;96828.13;;;11.47;100.00
30554;BME280;17335;50.720;7.452;2023-03-14T08:54:30;96819.28;;;11.33;100.00
30554;BME280;17335;50.720;7.452;2023-03-14T08:56:57;96832.53;;;11.27;100.00
30554;BME280;17335;50.720;7.452;2023-03-14T08:59:24;96841.19;;;11.36;100.00
30554;BME280;17335;50.720;7.452;2023-03-14T09:01:51;96828.38;;;11.38;100.00
30554;BME280;17335;50.720;7.452;2023-03-14T09:04:17;96843.91;;;11.30;100.00
30554;BME280;17335;50.720;7.452;2023-03-14T09:06:44;96828.44;;;11.18;100.00
30554;BME280;17335;50.720;7.452;2023-03-14T09:09:10;96838.56;;;11.16;100.00
30554;BME280;17335;50.720;7.452;2023-03-14T09:11:37;96854.69;;;11.10;100.00
30554;BME280;17335;50.720;7.452;2023-03-14T09:14:03;96866.88;;;10.99;100.00
30554;BME280;17335;50.720;7.452;2023-03-14T09:16:30;96861.06;;;11.02;100.00
30554;BME280;17335;50.720;7.452;2023-03-14T09:18:56;96866.00;;;11.32;100.00
30554;BME280;17335;50.720;7.452;2023-03-14T09:21:26;96844.47;;;11.45;100.00
30554;BME280;17335;50.720;7.452;2023-03-14T09:23:53;96843.59;;;11.58;100.00
30554;BME280;17335;50.720;7.452;2023-03-14T09:26:20;96845.66;;;11.62;100.00
30554;BME280;17335;50.720;7.452;2023-03-14T09:28:46;96860.97;;;11.55;100.00
30554;BME280;17335;50.720;7.452;2023-03-14T09:31:13;96864.75;;;11.27;100.00
30554;BME280;17335;50.720;7.452;2023-03-14T09:33:40;96871.59;;;11.17;100.00
30554;BME280;17335;50.720;7.452;2023-03-14T09:36:07;96882.94;;;11.12;100.00
30554;BME280;17335;50.720;7.452;2023-03-14T09:38:34;96891.25;;;10.97;100.00
30554;BME280;17335;50.720;7.452;2023-03-14T09:41:03;96891.66;;;11.01;100.00
30554;BME280;17335;50.720;7.452;2023-03-14T09:43:37;96890.03;;;10.86;100.00
30554;BME280;17335;50.720;7.452;2023-03-14T09:46:07;96902.38;;;10.74;100.00
30554;BME280;17335;50.720;7.452;2023-03-14T09:48:35;96897.03;;;10.61;100.00
30554;BME280;17335;50.720;7.452;2023-03-14T09:51:06;96915.38;;;10.44;100.00
30554;BME280;17335;50.720;7.452;2023-03-14T09:53:43;96933.28;;;10.43;100.00
30554;BME280;17335;50.720;7.452;2023-03-14T09:56:20;96945.69;;;10.51;100.00
30554;BME280;17335;50.720;7.452;2023-03-14T09:58:54;96955.56;;;10.37;100.00
30554;BME280;17335;50.720;7.452;2023-03-14T10:01:27;96953.13;;;10.42;100.00
30554;BME280;17335;50.720;7.452;2023-03-14T10:04:01;96965.47;;;10.43;100.00
30554;BME280;17335;50.720;7.452;2023-03-14T10:06:30;96969.22;;;10.49;100.00
30554;BME280;17335;50.720;7.452;2023-03-14T10:08:57;96969.66;;;10.53;100.00
30554;BME280;17335;50.720;7.452;2023-03-14T10:11:24;96980.78;;;10.49;100.00
30554;BME280;17335;50.720;7.452;2023-03-14T10:14:07;96983.63;;;10.41;100.00
30554;BME280;17335;50.720;7.452;2023-03-14T10:16:37;96991.84;;;10.33;100.00
30554;BME280;17335;50.720;7.452;2023-03-14T10:19:08;97057.72;;;10.14;100.00
30554;BME280;17335;50.720;7.452;2023-03-14T10:21:44;97099.03;;;9.91;100.00
30554;BME280;17335;50.720;7.452;2023-03-14T10:24:46;97107.25;;;9.12;100.00
30554;BME280;17335;50.720;7.452;2023-03-14T10:27:21;97118.63;;;8.62;100.00
30554;BME280;17335;50.720;7.452;2023-03-14T10:29:59;97138.47;;;8.53;100.00
30554;BME280;17335;50.720;7.452;2023-03-14T10:32:35;97146.66;;;8.37;100.00
30554;BME280;17335;50.720;7.452;2023-03-14T10:35:22;97157.53;;;8.20;100.00
30554;BME280;17335;50.720;7.452;2023-03-14T10:38:02;97168.22;;;8.20;100.00
30554;BME280;17335;50.720;7.452;2023-03-14T10:40:40;97173.00;;;8.10;100.00
30554;BME280;17335;50.720;7.452;2023-03-14T10:43:14;97193.53;;;7.95;100.00
30554;BME280;17335;50.720;7.452;2023-03-14T10:45:44;97203.69;;;7.76;100.00
30554;BME280;17335;50.720;7.452;2023-03-14T10:48:21;97209.94;;;7.68;100.00
30554;BME280;17335;50.720;7.452;2023-03-14T10:53:17;97215.09;;;7.47;100.00
30554;BME280;17335;50.720;7.452;2023-03-14T10:55:45;97230.41;;;7.53;100.00
30554;BME280;17335;50.720;7.452;2023-03-14T10:58:30;97229.69;;;7.59;100.00
30554;BME280;17335;50.720;7.452;2023-03-14T11:01:36;97246.94;;;7.48;100.00
30554;BME280;17335;50.720;7.452;2023-03-14T11:04:49;97242.97;;;7.67;100.00
30554;BME280;17335;50.720;7.452;2023-03-14T11:07:09;97267.53;;;7.63;100.00
30554;BME280;17335;50.720;7.452;2023-03-14T11:09:55;97270.16;;;7.48;100.00
30554;BME280;17335;50.720;7.452;2023-03-14T11:16:02;97289.06;;;7.38;100.00
30554;BME280;17335;50.720;7.452;2023-03-14T11:21:20;97312.75;;;7.33;100.00
30554;BME280;17335;50.720;7.452;2023-03-14T11:32:55;97327.03;;;7.17;100.00
30554;BME280;17335;50.720;7.452;2023-03-14T11:34:56;97334.34;;;7.15;100.00
30554;BME280;17335;50.720;7.452;2023-03-14T11:37:33;97340.81;;;7.29;100.00
30554;BME280;17335;50.720;7.452;2023-03-14T11:42:42;97342.03;;;7.10;100.00
30554;BME280;17335;50.720;7.452;2023-03-14T11:45:36;97348.56;;;7.07;100.00
30554;BME280;17335;50.720;7.452;2023-03-14T11:48:09;97372.41;;;7.01;100.00
30554;BME280;17335;50.720;7.452;2023-03-14T11:50:42;97357.91;;;7.03;100.00
30554;BME280;17335;50.720;7.452;2023-03-14T11:53:14;97369.91;;;7.07;100.00
30554;BME280;17335;50.720;7.452;2023-03-14T11:55:43;97380.72;;;7.14;100.00
30554;BME280;17335;50.720;7.452;2023-03-14T11:58:15;97366.31;;;7.31;100.00
30554;BME280;17335;50.720;7.452;2023-03-14T12:00:47;97374.50;;;7.61;100.00
30554;BME280;17335;50.720;7.452;2023-03-14T12:03:21;97368.19;;;7.62;100.00
30554;BME280;17335;50.720;7.452;2023-03-14T12:06:01;97371.31;;;7.66;100.00
30554;BME280;17335;50.720;7.452;2023-03-14T12:08:49;97374.97;;;7.73;100.00
30554;BME280;17335;50.720;7.452;2023-03-14T12:13:51;97383.22;;;7.63;100.00
30554;BME280;17335;50.720;7.452;2023-03-14T12:16:26;97391.94;;;7.49;100.00
30554;BME280;17335;50.720;7.452;2023-03-14T12:18:53;97397.75;;;7.53;100.00
30554;BME280;17335;50.720;7.452;2023-03-14T12:21:21;97409.75;;;7.57;100.00
30554;BME280;17335;50.720;7.452;2023-03-14T12:23:52;97422.63;;;7.53;100.00
30554;BME280;17335;50.720;7.452;2023-03-14T12:26:27;97510.25;;;7.33;100.00
30554;BME280;17335;50.720;7.452;2023-03-14T12:29:16;97486.09;;;6.44;100.00
30554;BME280;17335;50.720;7.452;2023-03-14T12:31:47;97489.69;;;6.18;100.00
30554;BME280;17335;50.720;7.452;2023-03-14T12:34:26;97479.19;;;6.17;100.00
30554;BME280;17335;50.720;7.452;2023-03-14T12:39:44;97503.50;;;6.06;100.00
30554;BME280;17335;50.720;7.452;2023-03-14T12:42:40;97503.19;;;6.17;100.00
30554;BME280;17335;50.720;7.452;2023-03-14T12:47:53;97538.06;;;6.40;100.00
30554;BME280;17335;50.720;7.452;2023-03-14T12:50:24;97551.53;;;6.38;100.00
30554;BME280;17335;50.720;7.452;2023-03-14T12:55:39;97564.16;;;6.28;100.00
30554;BME280;17335;50.720;7.452;2023-03-14T12:58:44;97581.50;;;6.24;100.00
30554;BME280;17335;50.720;7.452;2023-03-14T13:01:17;97595.09;;;6.13;100.00
30554;BME280;17335;50.720;7.452;2023-03-14T13:03:57;97613.00;;;6.03;100.00
30554;BME280;17335;50.720;7.452;2023-03-14T13:07:01;97617.44;;;5.94;100.00
30554;BME280;17335;50.720;7.452;2023-03-14T13:12:00;97629.34;;;5.81;100.00
30554;BME280;17335;50.720;7.452;2023-03-14T13:14:30;97650.13;;;5.78;100.00
30554;BME280;17335;50.720;7.452;2023-03-14T13:17:01;97634.16;;;5.78;100.00
30554;BME280;17335;50.720;7.452;2023-03-14T13:19:53;97649.53;;;5.92;100.00
30554;BME280;17335;50.720;7.452;2023-03-14T13:22:27;97660.03;;;5.94;100.00
30554;BME280;17335;50.720;7.452;2023-03-14T13:25:00;97666.19;;;6.12;100.00
30554;BME280;17335;50.720;7.452;2023-03-14T13:27:30;97667.56;;;6.25;100.00
30554;BME280;17335;50.720;7.452;2023-03-14T13:29:57;97671.75;;;6.27;100.00
30554;BME280;17335;50.720;7.452;2023-03-14T13:32:28;97680.91;;;6.25;100.00
30554;BME280;17335;50.720;7.452;2023-03-14T13:34:58;97682.38;;;6.19;100.00
30554;BME280;17335;50.720;7.452;2023-03-14T13:37:26;97682.88;;;6.23;100.00
30554;BME280;17335;50.720;7.452;2023-03-14T13:39:55;97683.34;;;6.18;100.00
30554;BME280;17335;50.720;7.452;2023-03-14T13:42:26;97689.88;;;6.24;100.00
30554;BME280;17335;50.720;7.452;2023-03-14T13:44:54;97706.44;;;6.35;100.00
30554;BME280;17335;50.720;7.452;2023-03-14T13:47:25;97715.75;;;6.31;100.00
30554;BME280;17335;50.720;7.452;2023-03-14T13:49:53;97721.19;;;6.22;100.00
30554;BME280;17335;50.720;7.452;2023-03-14T13:52:36;97731.97;;;6.20;100.00